Flugwetter Haslital by BIRDWING.ch
alle Angaben ohne Gewähr
code & design by arbyte.ch


Planplatten Sandhubel 1100m
08.05.21  06:307|15  N2.5°C78%
08.05.21  06:156|11  NNO2.1°C81%
08.05.21  06:005|9  N2.3°C82%
08.05.21  05:306|10  N2.6°C81%
08.05.21  05:008|13  N2.2°C85%
➜ Details Wind Sandhubel

Meiringen 589m
08.05.21  06:302|3  N0.7°C97%
08.05.21  06:201|3  WSW0.4°C99%
08.05.21  06:101|1  ONO0.7°C100%
08.05.21  05:502|4  NW0.3°C98%
08.05.21  05:301|2  NNW2.0°C95%

Flugplatz Unterbach 577m
08.05.21  06:202|2  N
08.05.21  05:500|0  N1.0°C100%
08.05.21  05:204|4  N1.0°C100%
08.05.21  04:204|4  N1.0°C100%

Brienz 567m
08.05.21  06:307|9  OSO
08.05.21  06:206|8  O
08.05.21  06:104|7  O
08.05.21  05:504|5  O
08.05.21  05:302|4  O

Gütsch ob Andermatt 2283m
08.05.21  06:3027|37  SSO-2.0°C40%
08.05.21  06:2026|39  S-1.7°C41%
08.05.21  06:1029|37  SSO-2.2°C48%
08.05.21  05:5028|37  SSO-1.8°C41%
08.05.21  05:3021|25  SSO-2.8°C48%

Höhematte Metropole 566m
08.05.21  06:307|9  O4.2°C89%
08.05.21  06:208|12  OSO4.3°C89%
08.05.21  06:107|11  OSO4.3°C89%
08.05.21  05:508|11  OSO4.3°C89%
08.05.21  05:309|10  OSO4.4°C89%

Niederhorn 1950m
08.05.21  06:3812|13  W-1.6°C95%
08.05.21  06:289|14  W-1.9°C94%
08.05.21  06:1811|16  W-2.1°C94%
08.05.21  05:580|0  W-2.7°C94%
08.05.21  05:380|0  NW-2.6°C94%

. . . . . . . . .

Bänzlauistock 2528m
08.05.21  06:300|0  N
08.05.21  06:000|0  N
08.05.21  05:300|0  N
08.05.21  05:000|0  N
08.05.21  04:300|0  N

Sidelhorn 2733m
08.05.21  06:3024|38  SSW
08.05.21  06:0023|42  SSW
08.05.21  05:3017|38  SW
08.05.21  05:0012|28  SSW
08.05.21  04:3010|18  SSO

Brienzer Rothorn 2348m
08.05.21  06:300|0  N
08.05.21  06:000|0  N
08.05.21  05:300|0  N
08.05.21  05:000|0  N
08.05.21  04:300|0  N

Gross Schijen 2784m
08.05.21  06:3016|22  SSO
08.05.21  06:0015|24  SSW
08.05.21  05:3015|26  SSW
08.05.21  04:302|17  W

Altdorf 438m
08.05.21  06:303|6  OSO1.5°C97%
08.05.21  06:202|3  SSO2.2°C96%
08.05.21  06:102|4  SSW2.2°C96%
08.05.21  05:504|6  SO1.9°C95%
08.05.21  05:302|4  SSO2.6°C97%

Flugplatz Buochs 449m
08.05.21  06:209|9  WSW2.0°C50%
08.05.21  05:507|7  SW2.0°C50%
08.05.21  05:207|7  WSW3.0°C33%
08.05.21  04:205|5  WSW2.0°C50%

Flugplatz Alpnach 445m
08.05.21  06:205|5  SSW2.0°C50%
08.05.21  05:502|2  N2.0°C50%
08.05.21  05:205|5  S2.0°C50%
08.05.21  04:204|4  N2.0°C100%

Chasseral 1599m
08.05.21  06:3041|46  SW1.5°C56%
08.05.21  06:2038|49  SSW0.9°C77%
08.05.21  06:1039|47  SSW0.4°C88%
08.05.21  05:5034|42  SSW0.3°C97%
08.05.21  05:3036|47  S0.4°C97%

Eggishorn 2893m
08.05.21  06:3024|36  SW-4.1°C29%
08.05.21  06:2023|37  SW-3.8°C28%
08.05.21  06:1026|40  WSW-4.2°C29%
08.05.21  05:5027|39  SW-4.4°C29%
08.05.21  05:3025|41  SW-4.6°C31%

Giswil 471m
08.05.21  06:304|7  WNW0.8°C99%
08.05.21  06:201|2  WSW0.7°C99%
08.05.21  06:102|3  SW0.8°C99%
08.05.21  05:502|4  W0.7°C99%
08.05.21  05:302|4  W0.8°C99%

Glarus 517m
08.05.21  06:302|6  SSO2.1°C93%
08.05.21  06:202|4  SO2.7°C92%
08.05.21  06:104|7  WNW3.3°C89%
08.05.21  05:501|3  OSO2.9°C92%
08.05.21  05:303|4  NW2.7°C92%

Gornergrat 3129m
08.05.21  06:307|10  SSO-2.6°C49%
08.05.21  06:205|11  SSO-2.7°C49%
08.05.21  06:109|17  S-2.4°C47%
08.05.21  05:508|19  SSO-2.7°C38%
08.05.21  05:308|20  S-2.8°C34%

Grimsel Hospiz 1980m
08.05.21  06:3032|45  SSO-2.0°C72%
08.05.21  06:2033|52  SSO-1.1°C66%
08.05.21  06:1040|52  S-1.9°C70%
08.05.21  05:5042|52  SSO-1.7°C75%
08.05.21  05:3037|51  S-2.0°C80%

Jungfraujoch 3580m
08.05.21  06:3036|45  NW-8.1°C46%
08.05.21  06:2034|54  NW-8.2°C46%
08.05.21  06:1033|45  NW-8.0°C40%
08.05.21  05:5032|42  NW-8.2°C39%
08.05.21  05:3036|47  NW-8.4°C39%

Luzern 454m
08.05.21  06:301|3  N3.3°C95%
08.05.21  06:203|5  WNW3.1°C96%
08.05.21  06:102|5  W3.1°C95%
08.05.21  05:502|5  SW3.1°C96%
08.05.21  05:304|8  W2.6°C96%

Le Moléson 1974m
08.05.21  06:3030|42  WNW1.4°C37%
08.05.21  06:2023|40  W1.5°C39%
08.05.21  06:1027|39  W1.5°C40%
08.05.21  05:5023|46  NW1.2°C40%
08.05.21  05:3015|40  WNW0.5°C47%

Napf 1404m
08.05.21  06:3017|27  SW1.7°C95%
08.05.21  06:2017|23  SW1.7°C95%
08.05.21  06:1017|24  SW1.6°C94%
08.05.21  05:5016|24  SW1.5°C95%
08.05.21  05:3017|23  SW1.9°C93%

Säntis 2502m
08.05.21  06:3045|60  WSW-5.4°C84%
08.05.21  06:2047|66  W-5.4°C91%
08.05.21  06:1044|67  WSW-5.2°C94%
08.05.21  05:5044|59  WSW-5.2°C99%
08.05.21  05:3044|59  WSW-5.3°C100%

Stockhorn 2190m
08.05.21  06:3026|46  WSW
08.05.21  06:0030|48  WSW
08.05.21  05:3032|45  WSW
08.05.21  04:3031|42  WSW

Thun 570m
08.05.21  06:303|5  S1.0°C98%
08.05.21  06:203|6  S1.0°C98%
08.05.21  06:102|4  S1.0°C98%
08.05.21  05:503|6  SSW1.4°C98%
08.05.21  05:305|9  SO2.4°C98%

Titlis 3040m
08.05.21  06:3043|54  W-5.3°C23%
08.05.21  06:2044|54  WSW-5.5°C24%
08.05.21  06:1045|58  WSW-5.3°C22%
08.05.21  05:5052|64  WSW-5.5°C26%
08.05.21  05:3051|61  WSW-6.0°C30%


QNH Druckwerte vom 08.05.2021 06:30
Interlaken1019.5 hPa
Zürich (SMA)1019.2 hPa
Acquarossa / Comprovasco1020.2 hPa
Locarno/Monti1020.0 hPa
Genve-Cointrin1019.1 hPa

Δ Comprovasco - Interlaken in hPa
08.05.21  06:301020.2 - 1019.5 =0.7
08.05.21  06:201020.0 - 1019.6 =0.4
08.05.21  06:001019.5 - 1019.8 =-0.3
08.05.21  05:301019.4 - 1019.9 =-0.5
08.05.21  04:301019.5 - 1020.3 =-0.8

Δ Locarno - Zürich in hPa
08.05.21  06:301020.0 - 1019.2 =0.8
08.05.21  06:201019.8 - 1019.1 =0.7
08.05.21  06:001019.6 - 1019.2 =0.4
08.05.21  05:301019.2 - 1019.1 =0.1
08.05.21  04:301018.5 - 1019.7 =-1.2

Δ Genf - Bodensee in hPa
08.05.21  06:301019.1 - 1019.8 =-0.7
08.05.21  06:201019.0 - 1019.5 =-0.5
08.05.21  06:001019.1 - 1019.7 =-0.6
08.05.21  05:301019.1 - 1019.5 =-0.4
08.05.21  04:301019.5 - 1020.0 =-0.5

Temp Meiringen - Planplatten in °C/100m
08.05.21  06:300.7 - 2.5 = -1.8-0.35
08.05.21  06:001.1 - 2.3 = -1.2-0.23
08.05.21  05:302.0 - 2.2 = -0.2-0.04

Temp Lehn - Niederhorn in °C/100m
08.05.21  06:394.3 - -1.6 = 5.90.43
08.05.21  06:094.0 - -2.2 = 6.20.45
08.05.21  05:394.4 - -2.6 = 7.00.51

Temp Luzern - Pilatus in °C/100m
08.05.21  06:303.3 - -0.8 = 4.10.25
08.05.21  06:003.2 - -0.6 = 3.80.23
08.05.21  05:302.6 - -1.3 = 3.90.24